createdAt,value
2023-05-05T00:00:21.473Z,13.80
2023-05-05T00:03:09.952Z,13.10
2023-05-05T00:05:38.354Z,12.10
2023-05-05T00:08:06.754Z,11.00
2023-05-05T00:10:35.201Z,9.30
2023-05-05T00:13:03.705Z,13.10
2023-05-05T00:15:32.283Z,16.30
2023-05-05T00:18:00.706Z,11.30
2023-05-05T00:20:29.148Z,10.20
2023-05-05T00:22:57.560Z,11.70
2023-05-05T00:25:25.912Z,9.60
2023-05-05T00:27:54.242Z,11.00
2023-05-05T00:30:22.804Z,10.50
2023-05-05T00:32:51.192Z,9.90
2023-05-05T00:35:19.558Z,8.40
2023-05-05T00:37:49.216Z,13.00
2023-05-05T00:40:18.715Z,9.40
2023-05-05T00:42:50.777Z,11.40
2023-05-05T00:45:20.551Z,12.40
2023-05-05T00:47:58.916Z,12.30
2023-05-05T00:50:30.598Z,10.50
2023-05-05T00:53:06.157Z,9.60
2023-05-05T00:55:35.579Z,9.90
2023-05-05T00:58:04.691Z,10.40
2023-05-05T01:00:34.511Z,11.90
2023-05-05T01:03:03.421Z,11.10
2023-05-05T01:05:53.549Z,12.70
2023-05-05T01:08:42.096Z,10.20
2023-05-05T01:11:21.560Z,9.90
2023-05-05T01:14:12.074Z,8.60
2023-05-05T01:16:59.190Z,11.50
2023-05-05T01:19:48.897Z,10.60
2023-05-05T01:22:22.998Z,9.70
2023-05-05T01:25:18.899Z,10.00
2023-05-05T01:28:19.177Z,8.70
2023-05-05T01:31:15.624Z,10.00
2023-05-05T01:33:59.054Z,9.40
2023-05-05T01:36:42.316Z,9.90
2023-05-05T01:39:16.607Z,10.20
2023-05-05T01:41:51.293Z,10.30
2023-05-05T01:44:20.373Z,10.90
2023-05-05T01:46:51.957Z,11.40
2023-05-05T01:49:20.723Z,11.70
2023-05-05T01:51:49.994Z,13.90
2023-05-05T01:54:19.240Z,10.50
2023-05-05T01:56:49.192Z,12.10
2023-05-05T01:59:20.385Z,12.40
2023-05-05T02:01:50.413Z,12.60
2023-05-05T02:04:22.814Z,12.40
2023-05-05T02:06:53.276Z,13.20
2023-05-05T02:09:25.050Z,12.20
2023-05-05T02:11:54.419Z,14.60
2023-05-05T02:14:26.612Z,11.10
2023-05-05T02:16:57.085Z,11.10
2023-05-05T02:19:34.291Z,14.90
2023-05-05T02:22:03.048Z,13.00
2023-05-05T02:24:31.808Z,11.30
2023-05-05T02:27:03.920Z,13.70
2023-05-05T02:29:36.906Z,11.10
2023-05-05T02:36:04.294Z,10.00
2023-05-05T02:38:33.437Z,11.90
2023-05-05T02:41:09.385Z,13.80
2023-05-05T02:43:40.950Z,11.70
2023-05-05T02:46:09.373Z,11.90
2023-05-05T02:53:30.226Z,10.60
2023-05-05T02:56:22.781Z,10.20
2023-05-05T02:59:08.934Z,11.30
2023-05-05T03:01:56.820Z,9.00
2023-05-05T03:04:52.982Z,11.30
2023-05-05T03:07:31.052Z,11.90
2023-05-05T03:10:18.840Z,11.80
2023-05-05T03:13:02.196Z,11.80
2023-05-05T03:15:41.829Z,11.60
2023-05-05T03:18:11.579Z,12.60
2023-05-05T03:20:40.904Z,10.90
2023-05-05T03:23:10.190Z,10.80
2023-05-05T03:25:49.850Z,14.20
2023-05-05T03:28:18.183Z,13.00
2023-05-05T03:30:46.551Z,14.40
2023-05-05T03:33:16.360Z,13.30
2023-05-05T03:35:44.719Z,14.70
2023-05-05T03:38:13.075Z,14.50
2023-05-05T03:40:44.596Z,13.90
2023-05-05T03:43:13.236Z,12.40
2023-05-05T03:45:41.625Z,11.50
2023-05-05T03:48:10.070Z,12.40
2023-05-05T03:50:38.564Z,11.00
2023-05-05T03:53:06.929Z,11.10
2023-05-05T03:55:35.294Z,13.30
2023-05-05T03:58:08.679Z,23.30
2023-05-05T04:00:36.991Z,15.30
2023-05-05T04:03:05.986Z,16.40
2023-05-05T04:05:34.585Z,18.70
2023-05-05T04:08:03.474Z,14.80
2023-05-05T04:10:32.179Z,12.80
2023-05-05T04:13:00.904Z,14.70
2023-05-05T04:15:30.367Z,15.90
2023-05-05T04:17:58.722Z,12.00
2023-05-05T04:20:27.120Z,16.70
2023-05-05T04:22:55.497Z,17.80
2023-05-05T04:25:23.942Z,16.80
2023-05-05T04:27:52.271Z,12.70
2023-05-05T04:30:20.716Z,13.00
2023-05-05T04:32:49.113Z,13.40
2023-05-05T04:35:17.629Z,13.40
2023-05-05T04:37:46.130Z,15.20
2023-05-05T04:40:14.650Z,14.00
2023-05-05T04:42:43.021Z,13.80
2023-05-05T04:45:11.851Z,14.60
2023-05-05T04:47:40.804Z,15.20
2023-05-05T04:50:11.486Z,14.20
2023-05-05T04:52:40.083Z,12.40
2023-05-05T04:55:10.721Z,13.30
2023-05-05T04:57:39.184Z,12.20
2023-05-05T05:00:09.737Z,14.40
2023-05-05T05:02:38.560Z,15.10
2023-05-05T05:05:07.805Z,18.50
2023-05-05T05:07:36.223Z,14.20
2023-05-05T05:10:05.247Z,15.00
2023-05-05T05:12:33.838Z,21.40
2023-05-05T05:15:02.379Z,14.70
2023-05-05T05:17:30.784Z,16.70
2023-05-05T05:20:01.749Z,13.50
2023-05-05T05:22:31.289Z,17.60
2023-05-05T05:24:59.687Z,18.20
2023-05-05T05:27:28.466Z,14.50
2023-05-05T05:29:57.365Z,16.00
2023-05-05T05:32:25.830Z,16.80
2023-05-05T05:34:54.169Z,17.70
2023-05-05T05:37:22.571Z,18.30
2023-05-05T05:39:52.395Z,24.20
2023-05-05T05:42:22.420Z,22.80
2023-05-05T05:44:56.876Z,17.20
2023-05-05T05:47:31.111Z,18.30
2023-05-05T05:50:05.847Z,18.20
2023-05-05T05:52:36.226Z,18.40
2023-05-05T05:55:31.109Z,21.10
2023-05-05T05:58:06.128Z,16.60
2023-05-05T06:00:37.962Z,17.40
2023-05-05T06:03:30.777Z,15.50
2023-05-05T06:05:59.510Z,17.40
2023-05-05T06:08:27.959Z,15.20
2023-05-05T06:10:56.384Z,15.40
2023-05-05T06:13:24.822Z,14.90
2023-05-05T06:15:53.198Z,18.30
2023-05-05T06:18:21.714Z,16.90
2023-05-05T06:20:51.508Z,14.60
2023-05-05T06:23:20.018Z,22.00
2023-05-05T06:25:48.415Z,15.60
2023-05-05T06:28:16.837Z,15.30
2023-05-05T06:30:45.161Z,15.60
2023-05-05T06:33:13.437Z,13.70
2023-05-05T06:35:41.807Z,16.70
2023-05-05T06:38:10.132Z,16.20
2023-05-05T06:40:38.575Z,15.50
2023-05-05T06:43:07.920Z,14.20
2023-05-05T06:45:36.341Z,14.70
2023-05-05T06:48:04.907Z,15.50
2023-05-05T06:50:33.449Z,13.40
2023-05-05T06:53:01.830Z,13.40
2023-05-05T06:55:30.937Z,17.70
2023-05-05T06:57:59.351Z,15.50
2023-05-05T07:00:27.923Z,12.60
2023-05-05T07:02:56.325Z,13.00
2023-05-05T07:05:24.734Z,12.40
2023-05-05T07:07:55.144Z,13.70
2023-05-05T07:10:25.523Z,14.10
2023-05-05T07:12:55.072Z,12.50
2023-05-05T07:15:28.180Z,12.90
2023-05-05T07:17:57.775Z,14.50
2023-05-05T07:29:58.729Z,18.70
2023-05-05T07:32:27.607Z,10.90
2023-05-05T07:34:56.254Z,12.50
2023-05-05T07:37:24.752Z,10.50
2023-05-05T07:39:53.186Z,10.00
2023-05-05T07:42:21.550Z,9.30
2023-05-05T07:44:50.193Z,10.90
2023-05-05T07:47:18.632Z,9.70
2023-05-05T07:49:47.031Z,10.10
2023-05-05T07:52:15.311Z,11.10
2023-05-05T07:54:45.450Z,11.10
2023-05-05T08:05:17.937Z,9.80
2023-05-05T08:07:46.704Z,11.70
2023-05-05T08:10:15.197Z,10.80
2023-05-05T08:12:43.579Z,10.70
2023-05-05T08:15:12.141Z,9.40
2023-05-05T08:17:52.349Z,9.60
2023-05-05T08:20:21.296Z,9.10
2023-05-05T08:22:50.000Z,10.30
2023-05-05T08:25:18.427Z,8.20
2023-05-05T08:27:46.831Z,7.70
2023-05-05T08:30:17.206Z,9.60
2023-05-05T08:32:45.678Z,7.70
2023-05-05T08:35:14.195Z,8.80
2023-05-05T08:37:42.594Z,8.10
2023-05-05T08:40:14.479Z,9.50
2023-05-05T08:42:45.584Z,7.20
2023-05-05T08:45:13.984Z,9.80
2023-05-05T08:48:34.068Z,8.00
2023-05-05T08:51:05.621Z,5.20
2023-05-05T08:54:00.395Z,5.70
2023-05-05T08:56:38.815Z,6.30
2023-05-05T08:59:09.668Z,8.60
2023-05-05T09:01:38.307Z,3.80
2023-05-05T09:04:09.815Z,5.20
2023-05-05T09:06:38.782Z,4.60
2023-05-05T09:09:08.435Z,6.00
2023-05-05T09:11:38.635Z,6.70
2023-05-05T09:16:53.646Z,4.00
2023-05-05T09:19:22.099Z,3.60
2023-05-05T09:21:50.536Z,7.40
2023-05-05T09:24:18.950Z,4.70
2023-05-05T09:26:50.942Z,7.10
2023-05-05T09:29:21.072Z,3.50
2023-05-05T09:32:11.291Z,3.80
2023-05-05T09:34:40.032Z,5.30
2023-05-05T09:37:08.420Z,4.70
2023-05-05T09:39:37.064Z,4.70
2023-05-05T09:42:07.799Z,4.90
2023-05-05T09:44:43.448Z,9.60
2023-05-05T09:47:28.483Z,5.10
2023-05-05T09:52:30.828Z,5.50
2023-05-05T09:55:00.442Z,4.80
2023-05-05T09:57:34.068Z,6.20
2023-05-05T10:00:04.550Z,3.80
2023-05-05T10:02:39.192Z,4.80
2023-05-05T10:05:15.611Z,4.30
2023-05-05T10:07:47.838Z,5.70
2023-05-05T10:10:18.449Z,5.00
2023-05-05T10:12:49.386Z,6.70
2023-05-05T10:15:18.735Z,4.70
2023-05-05T10:20:22.677Z,3.80
2023-05-05T10:22:53.561Z,7.30
2023-05-05T10:25:33.149Z,4.00
2023-05-05T10:28:06.714Z,3.60
2023-05-05T10:34:00.883Z,3.20
2023-05-05T10:36:30.216Z,4.30
2023-05-05T10:39:00.276Z,3.20
2023-05-05T10:41:31.031Z,3.40
2023-05-05T10:44:01.408Z,2.90
2023-05-05T10:46:31.874Z,3.00
2023-05-05T10:49:08.917Z,4.70
2023-05-05T10:51:55.580Z,2.90
2023-05-05T10:54:40.223Z,3.10
2023-05-05T10:57:10.916Z,3.60
2023-05-05T10:59:42.292Z,4.20
2023-05-05T11:02:21.417Z,2.90
2023-05-05T11:05:22.908Z,3.90
2023-05-05T11:07:52.476Z,3.80
2023-05-05T11:10:22.968Z,4.20
2023-05-05T11:13:02.550Z,3.20
2023-05-05T11:15:31.299Z,3.80
2023-05-05T11:18:07.553Z,3.00
2023-05-05T11:20:43.687Z,3.90
2023-05-05T11:23:13.349Z,2.70
2023-05-05T11:25:44.667Z,5.60
2023-05-05T11:28:16.957Z,2.10
2023-05-05T11:31:00.266Z,3.30
2023-05-05T11:33:33.540Z,3.40
2023-05-05T11:36:17.988Z,2.60
2023-05-05T11:41:59.160Z,5.60
2023-05-05T11:44:34.687Z,2.60
2023-05-05T11:47:06.197Z,2.00
2023-05-05T11:49:38.192Z,2.50
2023-05-05T11:52:10.268Z,2.10
2023-05-05T11:54:41.726Z,3.40
2023-05-05T11:57:10.190Z,2.80
2023-05-05T11:59:57.965Z,2.90
2023-05-05T12:02:28.628Z,3.10
2023-05-05T12:05:00.094Z,2.70
2023-05-05T12:07:32.196Z,3.40
2023-05-05T12:10:01.565Z,4.00
2023-05-05T12:12:42.788Z,3.50
2023-05-05T12:15:11.513Z,3.20
2023-05-05T12:17:46.131Z,5.80
2023-05-05T12:20:15.225Z,3.30
2023-05-05T12:22:44.842Z,3.20
2023-05-05T12:25:14.054Z,2.30
2023-05-05T12:27:52.262Z,2.80
2023-05-05T12:30:22.537Z,3.50
2023-05-05T12:32:51.151Z,2.70
2023-05-05T12:48:23.818Z,3.00
2023-05-05T12:50:52.438Z,2.80
2023-05-05T12:53:25.681Z,2.70
2023-05-05T12:55:54.256Z,3.00
2023-05-05T12:58:22.771Z,2.50
2023-05-05T13:01:10.890Z,2.90
2023-05-05T13:03:39.432Z,4.80
2023-05-05T13:06:26.058Z,2.40
2023-05-05T13:08:54.375Z,6.10
2023-05-05T13:11:22.777Z,2.80
2023-05-05T13:13:51.438Z,3.20
2023-05-05T13:16:19.793Z,2.80
2023-05-05T13:18:50.222Z,2.40
2023-05-05T13:21:18.557Z,2.80
2023-05-05T13:23:46.942Z,2.30
2023-05-05T13:26:18.397Z,2.60
2023-05-05T13:28:46.990Z,5.40
2023-05-05T13:31:15.427Z,3.10
2023-05-05T13:33:44.316Z,2.60
2023-05-05T13:36:12.778Z,2.20
2023-05-05T13:38:41.186Z,2.50
2023-05-05T13:41:09.770Z,2.60
2023-05-05T13:43:38.204Z,2.30
2023-05-05T13:46:19.231Z,1.90
2023-05-05T13:48:48.749Z,2.20
2023-05-05T13:51:17.579Z,4.80
2023-05-05T13:53:46.717Z,2.40
2023-05-05T13:56:17.834Z,2.90
2023-05-05T13:58:47.727Z,2.70
2023-05-05T14:01:16.084Z,2.80
2023-05-05T14:03:44.506Z,2.50
2023-05-05T14:06:12.869Z,2.20
2023-05-05T14:08:41.603Z,2.60
2023-05-05T14:11:09.999Z,3.50
2023-05-05T14:13:38.575Z,2.40
2023-05-05T14:16:07.084Z,2.50
2023-05-05T14:18:37.122Z,2.20
2023-05-05T14:21:05.619Z,2.50
2023-05-05T14:23:34.106Z,2.00
2023-05-05T14:26:02.960Z,2.90
2023-05-05T14:28:31.791Z,2.50
2023-05-05T14:31:00.342Z,2.30
2023-05-05T14:33:28.702Z,3.90
2023-05-05T14:35:57.275Z,2.90
2023-05-05T14:38:25.702Z,2.40
2023-05-05T14:40:54.277Z,5.00
2023-05-05T14:43:22.620Z,4.90
2023-05-05T14:45:54.468Z,1.80
2023-05-05T14:48:22.876Z,2.30
2023-05-05T14:50:51.227Z,3.00
2023-05-05T14:53:19.594Z,3.00
2023-05-05T14:55:48.166Z,4.20
2023-05-05T14:58:18.815Z,3.00
2023-05-05T15:00:47.104Z,4.40
2023-05-05T15:03:16.006Z,2.10
2023-05-05T15:05:44.484Z,2.40
2023-05-05T15:08:14.482Z,3.10
2023-05-05T15:10:42.861Z,2.50
2023-05-05T15:13:11.321Z,5.40
2023-05-05T15:15:39.791Z,4.70
2023-05-05T15:18:08.523Z,2.50
2023-05-05T15:20:37.072Z,4.70
2023-05-05T15:23:05.671Z,2.40
2023-05-05T15:25:34.046Z,4.70
2023-05-05T15:28:02.459Z,2.30
2023-05-05T15:30:31.017Z,2.50
2023-05-05T15:32:59.539Z,2.30
2023-05-05T15:35:27.948Z,2.40
2023-05-05T15:37:56.333Z,9.10
2023-05-05T15:40:24.916Z,1.90
2023-05-05T15:42:53.546Z,3.50
2023-05-05T15:45:21.898Z,2.90
2023-05-05T15:47:50.837Z,2.70
2023-05-05T15:50:20.042Z,8.40
2023-05-05T15:52:49.976Z,2.50
2023-05-05T15:55:18.502Z,2.40
2023-05-05T15:57:46.864Z,2.50
2023-05-05T16:00:16.200Z,2.20
2023-05-05T16:02:45.155Z,2.70
2023-05-05T16:05:13.886Z,3.40
2023-05-05T16:07:42.451Z,2.60
2023-05-05T16:10:10.860Z,2.80
2023-05-05T16:12:39.417Z,4.00
2023-05-05T16:15:08.811Z,4.00
2023-05-05T16:17:37.544Z,2.50
2023-05-05T16:20:06.633Z,2.90
2023-05-05T16:22:35.015Z,10.50
2023-05-05T16:25:03.863Z,6.30
2023-05-05T16:27:32.264Z,3.90
2023-05-05T16:30:00.790Z,2.70
2023-05-05T16:32:29.354Z,4.20
2023-05-05T16:34:57.711Z,2.60
2023-05-05T16:37:26.087Z,2.80
2023-05-05T16:39:54.504Z,4.00
2023-05-05T16:42:23.310Z,2.60
2023-05-05T16:44:51.647Z,8.30
2023-05-05T16:47:20.041Z,2.40
2023-05-05T16:49:48.459Z,2.40
2023-05-05T16:52:16.877Z,3.10
2023-05-05T16:54:45.303Z,3.30
2023-05-05T16:57:13.791Z,3.20
2023-05-05T16:59:42.148Z,2.90
2023-05-05T17:02:10.663Z,2.50
2023-05-05T17:04:38.996Z,4.60
2023-05-05T17:07:07.594Z,3.70
2023-05-05T17:09:35.960Z,2.40
2023-05-05T17:12:04.809Z,2.80
2023-05-05T17:14:33.666Z,3.00
2023-05-05T17:17:02.111Z,2.30
2023-05-05T17:19:30.653Z,4.20
2023-05-05T17:21:59.027Z,4.00
2023-05-05T17:24:27.438Z,2.00
2023-05-05T17:26:55.876Z,4.60
2023-05-05T17:29:24.350Z,3.10
2023-05-05T17:31:54.099Z,4.00
2023-05-05T17:34:22.744Z,3.30
2023-05-05T17:36:51.096Z,2.40
2023-05-05T17:39:19.535Z,2.70
2023-05-05T17:41:47.858Z,2.30
2023-05-05T17:44:16.198Z,4.20
2023-05-05T17:46:44.573Z,2.30
2023-05-05T17:49:12.868Z,3.50
2023-05-05T17:51:41.207Z,2.20
2023-05-05T17:54:09.685Z,4.10
2023-05-05T17:56:38.101Z,3.30
2023-05-05T17:59:06.413Z,3.00
2023-05-05T18:01:35.256Z,3.50
2023-05-05T18:04:03.843Z,2.70
2023-05-05T18:06:32.249Z,3.60
2023-05-05T18:09:00.639Z,4.10
2023-05-05T18:11:30.912Z,3.60
2023-05-05T18:13:59.365Z,3.10
2023-05-05T18:16:27.633Z,3.00
2023-05-05T18:18:56.020Z,4.30
2023-05-05T18:21:24.421Z,2.90
2023-05-05T18:23:57.274Z,3.70
2023-05-05T18:26:30.244Z,3.60
2023-05-05T18:28:58.572Z,7.10
2023-05-05T18:31:29.941Z,4.10
2023-05-05T18:33:58.455Z,5.30
2023-05-05T18:36:29.300Z,7.30
2023-05-05T18:38:57.616Z,6.40
2023-05-05T18:41:25.908Z,5.50
2023-05-05T18:43:54.260Z,6.10
2023-05-05T18:46:22.782Z,6.50
2023-05-05T18:48:51.184Z,7.70
2023-05-05T18:51:19.492Z,7.60
2023-05-05T18:53:47.907Z,6.70
2023-05-05T18:56:16.305Z,8.70
2023-05-05T18:58:44.612Z,7.30
2023-05-05T19:01:13.036Z,10.00
2023-05-05T19:03:41.469Z,8.40
2023-05-05T19:06:09.846Z,8.10
2023-05-05T19:08:38.222Z,11.30
2023-05-05T19:11:06.700Z,9.30
2023-05-05T19:13:35.049Z,7.70
2023-05-05T19:16:03.716Z,7.10
2023-05-05T19:18:32.644Z,6.20
2023-05-05T19:21:01.949Z,6.70
2023-05-05T19:23:30.929Z,7.50
2023-05-05T19:25:59.327Z,9.90
2023-05-05T19:28:27.660Z,6.80
2023-05-05T19:30:56.159Z,7.00
2023-05-05T19:33:24.493Z,8.60
2023-05-05T19:35:52.905Z,9.90
2023-05-05T19:38:21.280Z,9.80
2023-05-05T19:40:49.707Z,6.70
2023-05-05T19:43:18.030Z,6.70
2023-05-05T19:45:46.477Z,8.00
2023-05-05T19:48:14.963Z,13.20
2023-05-05T19:50:43.346Z,6.30
2023-05-05T19:53:11.638Z,5.50
2023-05-05T19:55:40.050Z,6.20
2023-05-05T19:58:08.466Z,5.60
2023-05-05T20:00:36.895Z,8.00
2023-05-05T20:03:06.912Z,7.40
2023-05-05T20:05:36.650Z,7.80
2023-05-05T20:08:05.748Z,7.30
2023-05-05T20:10:34.566Z,8.40
2023-05-05T20:13:02.985Z,7.10
2023-05-05T20:15:31.949Z,6.60
2023-05-05T20:18:01.775Z,8.00
2023-05-05T20:20:30.474Z,6.00
2023-05-05T20:22:58.862Z,6.40
2023-05-05T20:25:27.298Z,7.30
2023-05-05T20:27:56.916Z,10.10
2023-05-05T20:30:25.249Z,7.60
2023-05-05T20:32:54.357Z,11.30
2023-05-05T20:35:22.920Z,10.90
2023-05-05T20:37:51.487Z,15.30
2023-05-05T20:40:19.843Z,10.30
2023-05-05T20:42:48.136Z,15.80
2023-05-05T20:45:16.449Z,13.60
2023-05-05T20:47:44.807Z,9.00
2023-05-05T20:50:13.326Z,10.00
2023-05-05T20:52:42.139Z,12.10
2023-05-05T20:55:10.609Z,8.40
2023-05-05T20:57:39.198Z,10.10
2023-05-05T21:00:09.125Z,7.20
2023-05-05T21:02:37.966Z,13.00
2023-05-05T21:05:07.122Z,8.80
2023-05-05T21:07:35.519Z,6.30
2023-05-05T21:10:04.998Z,9.30
2023-05-05T21:12:34.651Z,22.80
2023-05-05T21:15:03.356Z,8.00
2023-05-05T21:17:31.752Z,7.60
2023-05-05T21:20:00.483Z,6.70
2023-05-05T21:22:28.826Z,6.40
2023-05-05T21:25:32.845Z,9.90
2023-05-05T21:28:01.148Z,10.90
2023-05-05T21:30:29.648Z,7.30
2023-05-05T21:32:58.207Z,11.00
2023-05-05T21:35:26.574Z,7.30
2023-05-05T21:37:54.918Z,8.80
2023-05-05T21:40:23.289Z,9.90
2023-05-05T21:42:51.577Z,9.10
2023-05-05T21:45:20.379Z,6.90
2023-05-05T21:47:48.840Z,6.80
2023-05-05T21:50:17.261Z,14.60
2023-05-05T21:52:45.661Z,6.00
2023-05-05T21:55:14.071Z,7.40
2023-05-05T21:57:42.372Z,10.60
2023-05-05T22:00:16.664Z,7.40
2023-05-05T22:02:45.579Z,5.80
2023-05-05T22:05:14.162Z,7.80
2023-05-05T22:07:42.454Z,9.40
2023-05-05T22:10:11.404Z,6.60
2023-05-05T22:12:40.721Z,6.80
2023-05-05T22:15:10.051Z,7.80
2023-05-05T22:17:38.890Z,6.80
2023-05-05T22:20:09.357Z,7.60
2023-05-05T22:22:37.852Z,5.70
2023-05-05T22:25:06.937Z,5.80
2023-05-05T22:27:35.348Z,7.20
2023-05-05T22:30:04.213Z,7.60
2023-05-05T22:32:32.608Z,6.00
2023-05-05T22:35:01.424Z,9.70
2023-05-05T22:37:29.929Z,7.00
2023-05-05T22:39:58.421Z,10.50
2023-05-05T22:42:26.851Z,9.00
2023-05-05T22:44:55.266Z,6.90
2023-05-05T22:47:23.677Z,8.20
2023-05-05T22:49:52.139Z,7.00
2023-05-05T22:52:20.523Z,5.80
2023-05-05T22:54:48.851Z,7.90
2023-05-05T22:57:17.202Z,5.70
2023-05-05T22:59:45.565Z,7.60
2023-05-05T23:02:13.974Z,7.90
2023-05-05T23:04:44.898Z,6.30
2023-05-05T23:07:13.748Z,6.00
2023-05-05T23:09:42.201Z,6.60
2023-05-05T23:12:10.902Z,8.30
2023-05-05T23:14:39.391Z,6.60
2023-05-05T23:17:07.920Z,7.10
2023-05-05T23:19:37.047Z,10.90
2023-05-05T23:22:05.549Z,9.40
2023-05-05T23:24:33.983Z,10.00
2023-05-05T23:27:03.047Z,6.00
2023-05-05T23:29:31.710Z,8.20
2023-05-05T23:32:00.034Z,5.70
2023-05-05T23:34:28.378Z,7.10
2023-05-05T23:36:57.189Z,4.40
2023-05-05T23:39:25.512Z,6.10
2023-05-05T23:41:53.872Z,6.10
2023-05-05T23:44:22.162Z,6.70
2023-05-05T23:46:50.512Z,7.00
2023-05-05T23:49:18.845Z,5.00
2023-05-05T23:51:47.145Z,5.90
2023-05-05T23:54:15.736Z,7.20
2023-05-05T23:56:44.098Z,9.60
2023-05-05T23:59:12.500Z,8.90
